createdAt,value
2023-01-30T00:01:57.256Z,22.93
2023-01-30T00:04:26.639Z,26.27
2023-01-30T00:06:55.711Z,21.17
2023-01-30T00:09:23.383Z,20.13
2023-01-30T00:11:51.126Z,23.23
2023-01-30T00:14:18.925Z,21.20
2023-01-30T00:16:46.653Z,21.60
2023-01-30T00:19:14.381Z,23.20
2023-01-30T00:21:42.078Z,19.43
2023-01-30T00:24:11.426Z,20.07
2023-01-30T00:26:39.167Z,23.93
2023-01-30T00:29:06.851Z,20.43
2023-01-30T00:31:34.522Z,20.63
2023-01-30T00:34:02.236Z,20.17
2023-01-30T00:36:30.003Z,23.47
2023-01-30T00:38:58.559Z,20.13
2023-01-30T00:41:50.487Z,19.80
2023-01-30T00:44:35.794Z,23.23
2023-01-30T00:47:09.175Z,21.70
2023-01-30T00:49:37.236Z,21.50
2023-01-30T00:52:05.696Z,22.00
2023-01-30T00:54:33.599Z,20.07
2023-01-30T00:57:02.702Z,25.37
2023-01-30T00:59:30.387Z,24.77
2023-01-30T01:01:58.148Z,22.73
2023-01-30T01:04:25.983Z,23.87
2023-01-30T01:06:53.646Z,24.00
2023-01-30T01:09:21.399Z,24.00
2023-01-30T01:11:49.142Z,22.47
2023-01-30T01:14:18.234Z,22.33
2023-01-30T01:16:46.159Z,20.50
2023-01-30T01:19:13.826Z,21.23
2023-01-30T01:21:41.494Z,24.07
2023-01-30T01:24:13.820Z,24.37
2023-01-30T01:26:41.767Z,23.23
2023-01-30T01:29:13.354Z,22.97
2023-01-30T01:31:42.615Z,22.40
2023-01-30T01:34:10.489Z,22.50
2023-01-30T01:36:54.806Z,21.73
2023-01-30T01:39:23.419Z,24.50
2023-01-30T01:41:50.171Z,20.27
2023-01-30T01:44:18.001Z,22.50
2023-01-30T01:46:52.004Z,18.33
2023-01-30T01:49:23.870Z,23.53
2023-01-30T01:51:57.224Z,20.00
2023-01-30T01:54:30.601Z,18.33
2023-01-30T01:56:58.382Z,18.07
2023-01-30T01:59:31.248Z,17.97
2023-01-30T02:02:04.967Z,16.67
2023-01-30T02:04:48.038Z,21.83
2023-01-30T02:07:19.072Z,18.30
2023-01-30T02:09:46.885Z,16.33
2023-01-30T02:12:16.404Z,17.87
2023-01-30T02:14:45.245Z,18.33
2023-01-30T02:17:14.252Z,18.87
2023-01-30T02:19:50.759Z,16.87
2023-01-30T02:22:45.821Z,18.40
2023-01-30T02:25:27.497Z,16.47
2023-01-30T02:28:33.231Z,16.07
2023-01-30T02:31:18.410Z,17.43
2023-01-30T02:33:57.217Z,17.90
2023-01-30T02:36:31.622Z,15.70
2023-01-30T02:39:08.240Z,19.47
2023-01-30T02:41:45.337Z,18.00
2023-01-30T02:44:19.148Z,19.57
2023-01-30T02:46:55.464Z,18.80
2023-01-30T02:49:30.113Z,21.93
2023-01-30T02:52:00.355Z,20.80
2023-01-30T02:54:28.371Z,19.10
2023-01-30T02:56:59.770Z,21.13
2023-01-30T02:59:32.531Z,24.17
2023-01-30T03:02:33.850Z,24.00
2023-01-30T03:05:21.042Z,22.90
2023-01-30T03:07:56.576Z,22.13
2023-01-30T03:10:33.977Z,21.83
2023-01-30T03:13:06.501Z,24.87
2023-01-30T03:15:36.603Z,22.97
2023-01-30T03:18:06.114Z,21.63
2023-01-30T03:20:38.471Z,23.23
2023-01-30T03:23:06.206Z,21.73
2023-01-30T03:25:36.949Z,22.33
2023-01-30T03:28:07.831Z,24.10
2023-01-30T03:30:35.571Z,23.53
2023-01-30T03:33:03.262Z,22.83
2023-01-30T03:35:32.410Z,26.20
2023-01-30T03:38:00.301Z,23.00
2023-01-30T03:40:28.151Z,20.67
2023-01-30T03:42:55.859Z,21.87
2023-01-30T03:45:23.530Z,20.73
2023-01-30T03:47:51.928Z,23.40
2023-01-30T03:50:19.663Z,22.77
2023-01-30T03:52:48.729Z,20.77
2023-01-30T03:55:17.050Z,22.27
2023-01-30T03:57:45.008Z,22.97
2023-01-30T04:00:13.471Z,23.10
2023-01-30T04:02:41.230Z,27.27
2023-01-30T04:05:09.105Z,20.73
2023-01-30T04:07:36.803Z,21.83
2023-01-30T04:10:06.761Z,25.40
2023-01-30T04:12:34.455Z,23.17
2023-01-30T04:15:02.180Z,21.00
2023-01-30T04:17:29.847Z,26.40
2023-01-30T04:19:57.527Z,23.40
2023-01-30T04:22:25.205Z,24.57
2023-01-30T04:24:52.865Z,23.97
2023-01-30T04:27:21.914Z,24.10
2023-01-30T04:29:49.612Z,26.00
2023-01-30T04:32:17.303Z,22.13
2023-01-30T04:34:45.229Z,22.67
2023-01-30T04:37:14.761Z,24.30
2023-01-30T04:39:42.424Z,22.17
2023-01-30T04:42:10.103Z,24.07
2023-01-30T04:44:39.193Z,23.10
2023-01-30T04:47:06.927Z,22.47
2023-01-30T04:49:34.627Z,22.10
2023-01-30T04:52:02.295Z,24.47
2023-01-30T04:54:31.767Z,20.67
2023-01-30T04:56:59.546Z,20.80
2023-01-30T04:59:27.243Z,20.90
2023-01-30T05:01:56.839Z,19.43
2023-01-30T05:04:24.799Z,22.67
2023-01-30T05:06:52.474Z,25.43
2023-01-30T05:09:20.193Z,25.40
2023-01-30T05:11:49.828Z,24.30
2023-01-30T05:14:17.590Z,22.67
2023-01-30T05:16:45.190Z,22.67
2023-01-30T05:19:14.415Z,21.97
2023-01-30T05:21:42.082Z,20.97
2023-01-30T05:24:09.859Z,20.10
2023-01-30T05:26:37.774Z,20.50
2023-01-30T05:29:05.511Z,20.13
2023-01-30T05:31:35.221Z,19.20
2023-01-30T05:34:02.934Z,18.33
2023-01-30T05:36:31.956Z,19.03
2023-01-30T05:38:59.580Z,23.80
2023-01-30T05:41:27.309Z,21.47
2023-01-30T05:43:55.002Z,21.87
2023-01-30T05:46:22.708Z,19.43
2023-01-30T05:48:50.425Z,20.00
2023-01-30T05:51:20.271Z,19.03
2023-01-30T05:53:49.545Z,17.57
2023-01-30T05:56:17.701Z,17.00
2023-01-30T05:58:50.691Z,16.70
2023-01-30T06:01:18.386Z,14.10
2023-01-30T06:03:46.189Z,14.73
2023-01-30T06:06:14.200Z,13.30
2023-01-30T06:08:42.456Z,14.43
2023-01-30T06:11:13.861Z,13.80
2023-01-30T06:13:41.681Z,14.90
2023-01-30T06:16:12.030Z,15.40
2023-01-30T06:18:40.283Z,18.03
2023-01-30T06:21:08.776Z,15.70
2023-01-30T06:23:36.569Z,14.00
2023-01-30T06:26:06.262Z,16.60
2023-01-30T06:28:37.501Z,15.10
2023-01-30T06:31:07.913Z,14.73
2023-01-30T06:33:35.732Z,14.97
2023-01-30T06:36:03.577Z,14.40
2023-01-30T06:38:31.342Z,16.63
2023-01-30T06:40:59.013Z,17.47
2023-01-30T06:43:26.683Z,18.97
2023-01-30T06:45:55.714Z,15.97
2023-01-30T06:48:23.412Z,15.57
2023-01-30T06:50:51.130Z,15.67
2023-01-30T06:53:18.933Z,14.87
2023-01-30T06:55:47.776Z,17.83
2023-01-30T06:58:16.060Z,15.43
2023-01-30T07:00:44.303Z,13.57
2023-01-30T07:03:14.597Z,15.73
2023-01-30T07:05:43.293Z,15.57
2023-01-30T07:08:11.768Z,14.13
2023-01-30T07:10:39.923Z,12.73
2023-01-30T07:13:10.888Z,14.47
2023-01-30T07:15:38.815Z,14.07
2023-01-30T07:18:06.598Z,14.17
2023-01-30T07:20:35.870Z,14.07
2023-01-30T07:23:03.569Z,13.03
2023-01-30T07:25:31.366Z,13.03
2023-01-30T07:28:00.954Z,12.53
2023-01-30T07:30:33.103Z,13.47
2023-01-30T07:33:03.658Z,13.07
2023-01-30T07:35:33.134Z,14.93
2023-01-30T07:38:02.153Z,11.80
2023-01-30T07:40:29.862Z,13.57
2023-01-30T07:42:59.002Z,16.07
2023-01-30T07:45:26.861Z,15.50
2023-01-30T07:47:55.137Z,13.57
2023-01-30T07:50:22.871Z,13.73
2023-01-30T07:52:50.560Z,14.10
2023-01-30T07:55:19.999Z,13.70
2023-01-30T07:57:47.991Z,15.60
2023-01-30T08:00:16.993Z,15.43
2023-01-30T08:02:44.961Z,13.70
2023-01-30T08:05:12.672Z,14.13
2023-01-30T08:07:40.695Z,13.43
2023-01-30T08:10:11.876Z,14.53
2023-01-30T08:12:42.271Z,12.90
2023-01-30T08:15:11.273Z,12.90
2023-01-30T08:17:39.006Z,13.17
2023-01-30T08:20:07.859Z,12.70
2023-01-30T08:22:35.584Z,13.30
2023-01-30T08:25:03.343Z,13.27
2023-01-30T08:27:31.028Z,12.80
2023-01-30T08:30:00.193Z,10.77
2023-01-30T08:32:27.948Z,11.53
2023-01-30T08:34:55.657Z,10.63
2023-01-30T08:37:23.414Z,9.80
2023-01-30T08:39:51.153Z,10.83
2023-01-30T08:42:18.867Z,9.27
2023-01-30T08:44:46.705Z,10.40
2023-01-30T08:47:15.780Z,10.70
2023-01-30T08:49:43.445Z,9.53
2023-01-30T08:52:11.431Z,10.03
2023-01-30T08:54:39.095Z,9.07
2023-01-30T08:57:06.757Z,9.87
2023-01-30T08:59:34.663Z,10.70
2023-01-30T09:02:02.424Z,11.23
2023-01-30T09:04:32.172Z,8.50
2023-01-30T09:07:00.003Z,9.33
2023-01-30T09:09:29.605Z,10.03
2023-01-30T09:11:57.357Z,8.57
2023-01-30T09:14:25.067Z,9.10
2023-01-30T09:16:55.597Z,9.17
2023-01-30T09:19:23.825Z,9.47
2023-01-30T09:21:53.799Z,9.00
2023-01-30T09:24:26.241Z,8.93
2023-01-30T09:26:54.296Z,10.73
2023-01-30T09:29:22.663Z,9.97
2023-01-30T09:31:50.867Z,7.63
2023-01-30T09:34:18.613Z,8.10
2023-01-30T09:36:47.060Z,7.13
2023-01-30T09:39:16.838Z,7.83
2023-01-30T09:42:03.397Z,6.93
2023-01-30T09:45:05.080Z,7.43
2023-01-30T09:47:55.450Z,7.60
2023-01-30T09:50:45.638Z,7.67
2023-01-30T09:53:25.210Z,7.57
2023-01-30T09:55:59.011Z,7.37
2023-01-30T09:58:34.238Z,6.97
2023-01-30T10:01:12.976Z,7.07
2023-01-30T10:03:56.383Z,6.33
2023-01-30T10:06:24.140Z,6.07
2023-01-30T10:08:58.112Z,6.17
2023-01-30T10:11:41.406Z,7.53
2023-01-30T10:14:21.636Z,6.77
2023-01-30T10:17:01.312Z,5.33
2023-01-30T10:19:55.559Z,7.50
2023-01-30T10:22:38.662Z,6.70
2023-01-30T10:25:18.783Z,5.87
2023-01-30T10:27:53.544Z,5.90
2023-01-30T10:30:22.188Z,5.53
2023-01-30T10:32:55.243Z,5.83
2023-01-30T10:35:27.070Z,4.77
2023-01-30T10:38:01.993Z,5.40
2023-01-30T10:40:35.827Z,5.37
2023-01-30T10:43:16.016Z,5.73
2023-01-30T10:45:51.721Z,4.97
2023-01-30T10:48:46.337Z,6.03
2023-01-30T10:51:22.644Z,5.33
2023-01-30T10:53:57.515Z,5.27
2023-01-30T10:56:36.752Z,4.37
2023-01-30T10:59:22.694Z,5.80
2023-01-30T11:01:59.631Z,6.07
2023-01-30T11:04:32.705Z,9.10
2023-01-30T11:07:01.815Z,5.40
2023-01-30T11:09:43.853Z,4.40
2023-01-30T11:12:11.664Z,4.43
2023-01-30T11:14:55.289Z,5.17
2023-01-30T11:17:31.204Z,5.03
2023-01-30T11:20:06.967Z,4.20
2023-01-30T11:22:37.585Z,3.70
2023-01-30T11:25:08.021Z,4.73
2023-01-30T11:27:36.277Z,4.80
2023-01-30T11:30:09.012Z,4.37
2023-01-30T11:32:37.215Z,4.53
2023-01-30T11:35:27.208Z,4.30
2023-01-30T11:37:55.042Z,5.13
2023-01-30T11:40:29.647Z,3.60
2023-01-30T11:43:04.313Z,4.40
2023-01-30T11:45:39.014Z,6.20
2023-01-30T11:48:31.623Z,4.13
2023-01-30T11:51:04.968Z,4.93
2023-01-30T11:53:37.871Z,3.10
2023-01-30T11:56:11.111Z,3.10
2023-01-30T11:58:41.870Z,4.47
2023-01-30T12:01:12.782Z,4.87
2023-01-30T12:03:48.262Z,5.47
2023-01-30T12:06:23.507Z,3.60
2023-01-30T12:08:54.806Z,3.67
2023-01-30T12:11:29.868Z,4.33
2023-01-30T12:14:17.691Z,4.33
2023-01-30T12:16:55.154Z,6.03
2023-01-30T12:19:43.037Z,5.10
2023-01-30T12:22:20.378Z,4.13
2023-01-30T12:24:59.114Z,3.67
2023-01-30T12:27:38.435Z,4.73
2023-01-30T12:30:17.205Z,3.80
2023-01-30T12:32:46.798Z,4.43
2023-01-30T12:35:17.711Z,3.73
2023-01-30T12:37:57.965Z,4.03
2023-01-30T12:40:40.553Z,4.00
2023-01-30T12:43:33.928Z,4.47
2023-01-30T12:46:13.007Z,3.70
2023-01-30T12:49:13.728Z,4.17
2023-01-30T12:51:56.359Z,5.83
2023-01-30T12:54:41.364Z,6.83
2023-01-30T12:57:19.603Z,3.97
2023-01-30T12:59:58.787Z,4.27
2023-01-30T13:02:53.131Z,6.10
2023-01-30T13:05:38.548Z,5.70
2023-01-30T13:08:23.948Z,5.03
2023-01-30T13:10:55.747Z,8.10
2023-01-30T13:13:35.691Z,6.97
2023-01-30T13:16:11.694Z,7.70
2023-01-30T13:18:48.138Z,7.50
2023-01-30T13:21:22.182Z,6.40
2023-01-30T13:24:04.631Z,7.67
2023-01-30T13:26:35.896Z,7.47
2023-01-30T13:29:07.669Z,6.50
2023-01-30T13:31:40.206Z,5.87
2023-01-30T13:34:13.064Z,6.20
2023-01-30T13:36:48.392Z,6.17
2023-01-30T13:39:24.901Z,7.10
2023-01-30T13:41:56.621Z,8.10
2023-01-30T13:44:29.105Z,6.90
2023-01-30T13:46:59.564Z,6.57
2023-01-30T13:49:38.852Z,6.73
2023-01-30T13:52:18.041Z,6.87
2023-01-30T13:54:56.556Z,6.67
2023-01-30T13:57:33.541Z,6.13
2023-01-30T14:00:28.129Z,9.13
2023-01-30T14:03:31.699Z,7.90
2023-01-30T14:06:14.578Z,6.13
2023-01-30T14:08:54.983Z,8.80
2023-01-30T14:11:47.841Z,6.43
2023-01-30T14:14:31.500Z,6.27
2023-01-30T14:17:10.139Z,7.03
2023-01-30T14:19:41.693Z,6.40
2023-01-30T14:22:25.844Z,6.63
2023-01-30T14:25:36.999Z,6.53
2023-01-30T14:28:51.090Z,6.60
2023-01-30T14:31:51.938Z,6.23
2023-01-30T14:34:51.052Z,8.80
2023-01-30T14:37:57.404Z,7.33
2023-01-30T14:40:32.593Z,5.67
2023-01-30T14:43:48.524Z,6.87
2023-01-30T14:46:54.290Z,6.17
2023-01-30T14:49:30.525Z,6.27
2023-01-30T14:51:58.563Z,5.97
2023-01-30T14:54:41.851Z,7.73
2023-01-30T14:57:20.274Z,7.17
2023-01-30T15:00:13.103Z,5.60
2023-01-30T15:02:44.824Z,6.80
2023-01-30T15:05:16.276Z,7.00
2023-01-30T15:07:48.224Z,6.50
2023-01-30T15:10:39.721Z,6.20
2023-01-30T15:13:32.001Z,6.97
2023-01-30T15:16:10.967Z,7.20
2023-01-30T15:19:02.655Z,4.97
2023-01-30T15:21:46.616Z,5.87
2023-01-30T15:24:41.581Z,6.67
2023-01-30T15:27:18.082Z,7.43
2023-01-30T15:30:18.071Z,7.33
2023-01-30T15:32:46.217Z,5.53
2023-01-30T15:35:25.681Z,5.67
2023-01-30T15:37:56.227Z,6.80
2023-01-30T15:40:26.417Z,6.40
2023-01-30T15:43:05.186Z,7.43
2023-01-30T15:45:41.192Z,5.30
2023-01-30T15:48:27.557Z,6.57
2023-01-30T15:51:00.210Z,7.37
2023-01-30T15:53:31.392Z,7.10
2023-01-30T15:56:01.444Z,8.43
2023-01-30T15:58:30.525Z,5.33
2023-01-30T16:01:02.008Z,7.53
2023-01-30T16:03:34.250Z,8.93
2023-01-30T16:06:04.482Z,7.07
2023-01-30T16:08:34.332Z,9.07
2023-01-30T16:11:02.540Z,7.10
2023-01-30T16:13:33.212Z,10.77
2023-01-30T16:16:08.120Z,6.70
2023-01-30T16:18:41.863Z,7.50
2023-01-30T16:21:18.194Z,7.00
2023-01-30T16:23:56.926Z,8.43
2023-01-30T16:26:24.987Z,6.20
2023-01-30T16:29:01.181Z,8.20
2023-01-30T16:31:33.233Z,6.53
2023-01-30T16:34:01.596Z,7.77
2023-01-30T16:36:40.239Z,11.87
2023-01-30T16:39:32.536Z,11.27
2023-01-30T16:42:02.016Z,7.90
2023-01-30T16:44:30.890Z,7.57
2023-01-30T16:47:01.974Z,9.70
2023-01-30T16:49:45.385Z,9.20
2023-01-30T16:52:20.068Z,9.93
2023-01-30T16:54:50.626Z,11.23
2023-01-30T16:57:28.647Z,9.33
2023-01-30T16:59:56.699Z,8.60
2023-01-30T17:02:29.832Z,9.17
2023-01-30T17:05:11.288Z,7.60
2023-01-30T17:07:40.358Z,14.23
2023-01-30T17:10:51.318Z,12.37
2023-01-30T17:13:34.074Z,11.73
2023-01-30T17:16:23.543Z,8.07
2023-01-30T17:18:52.457Z,10.07
2023-01-30T17:21:21.049Z,11.27
2023-01-30T17:23:53.334Z,11.30
2023-01-30T17:26:21.169Z,9.43
2023-01-30T17:28:48.949Z,9.83
2023-01-30T17:31:18.760Z,9.80
2023-01-30T17:33:46.698Z,8.27
2023-01-30T17:36:23.019Z,8.07
2023-01-30T17:38:53.343Z,9.10
2023-01-30T17:41:22.517Z,8.10
2023-01-30T17:43:50.996Z,9.30
2023-01-30T17:46:19.211Z,10.50
2023-01-30T17:48:47.126Z,10.40
2023-01-30T17:51:14.949Z,11.10
2023-01-30T17:53:42.779Z,12.40
2023-01-30T17:56:18.772Z,10.63
2023-01-30T17:58:46.480Z,11.90
2023-01-30T18:01:16.233Z,12.67
2023-01-30T18:03:45.009Z,8.13
2023-01-30T18:06:15.074Z,8.90
2023-01-30T18:08:43.409Z,7.33
2023-01-30T18:11:12.104Z,7.27
2023-01-30T18:13:42.519Z,11.50
2023-01-30T18:16:16.091Z,9.30
2023-01-30T18:18:43.881Z,9.60
2023-01-30T18:21:11.664Z,8.97
2023-01-30T18:23:39.510Z,12.80
2023-01-30T18:26:07.306Z,9.40
2023-01-30T18:28:34.971Z,11.73
2023-01-30T18:31:04.265Z,8.27
2023-01-30T18:33:33.336Z,9.87
2023-01-30T18:36:04.144Z,10.57
2023-01-30T18:38:31.979Z,10.23
2023-01-30T18:40:59.669Z,11.13
2023-01-30T18:43:27.391Z,12.43
2023-01-30T18:46:04.753Z,11.63
2023-01-30T18:48:32.679Z,12.03
2023-01-30T18:51:08.360Z,10.73
2023-01-30T18:53:36.672Z,14.13
2023-01-30T18:56:05.531Z,17.20
2023-01-30T18:58:33.520Z,13.93
2023-01-30T19:01:01.794Z,11.00
2023-01-30T19:03:31.178Z,11.97
2023-01-30T19:06:02.047Z,10.43
2023-01-30T19:08:29.869Z,19.67
2023-01-30T19:11:24.057Z,13.10
2023-01-30T19:13:50.779Z,13.70
2023-01-30T19:16:19.142Z,12.80
2023-01-30T19:18:49.586Z,14.63
2023-01-30T19:21:17.606Z,13.63
2023-01-30T19:23:45.653Z,9.97
2023-01-30T19:26:13.691Z,11.83
2023-01-30T19:28:44.480Z,12.43
2023-01-30T19:31:14.922Z,11.07
2023-01-30T19:33:43.211Z,15.97
2023-01-30T19:36:15.201Z,13.03
2023-01-30T19:38:44.079Z,15.80
2023-01-30T19:41:12.461Z,14.03
2023-01-30T19:43:40.648Z,13.10
2023-01-30T19:46:10.891Z,16.77
2023-01-30T19:48:39.142Z,14.57
2023-01-30T19:51:13.990Z,15.07
2023-01-30T19:53:42.560Z,11.67
2023-01-30T19:56:12.042Z,15.53
2023-01-30T19:58:41.584Z,13.50
2023-01-30T20:01:10.949Z,16.17
2023-01-30T20:03:39.358Z,13.73
2023-01-30T20:06:08.836Z,14.17
2023-01-30T20:08:38.452Z,12.17
2023-01-30T20:11:07.374Z,11.93
2023-01-30T20:13:36.154Z,10.47
2023-01-30T20:16:06.505Z,20.07
2023-01-30T20:18:37.377Z,14.47
2023-01-30T20:21:07.164Z,16.47
2023-01-30T20:23:35.223Z,15.00
2023-01-30T20:26:06.406Z,14.60
2023-01-30T20:28:34.832Z,14.10
2023-01-30T20:31:08.941Z,19.47
2023-01-30T20:33:37.027Z,15.70
2023-01-30T20:36:07.134Z,11.03
2023-01-30T20:38:37.127Z,18.43
2023-01-30T20:41:09.290Z,13.20
2023-01-30T20:43:38.468Z,15.40
2023-01-30T20:46:08.087Z,14.73
2023-01-30T20:48:37.272Z,13.63
2023-01-30T20:51:06.613Z,11.20
2023-01-30T20:53:34.729Z,12.37
2023-01-30T20:56:02.715Z,12.47
2023-01-30T20:58:32.239Z,12.50
2023-01-30T21:01:08.405Z,13.73
2023-01-30T21:03:36.327Z,15.77
2023-01-30T21:06:04.413Z,12.27
2023-01-30T21:08:32.387Z,11.77
2023-01-30T21:11:08.423Z,13.10
2023-01-30T21:13:38.417Z,17.13
2023-01-30T21:16:08.831Z,13.27
2023-01-30T21:18:39.949Z,13.97
2023-01-30T21:21:08.380Z,17.43
2023-01-30T21:23:37.000Z,13.87
2023-01-30T21:26:09.321Z,16.00
2023-01-30T21:28:39.170Z,13.63
2023-01-30T21:31:08.792Z,18.60
2023-01-30T21:33:36.751Z,15.43
2023-01-30T21:36:05.280Z,13.50
2023-01-30T21:38:50.336Z,13.40
2023-01-30T21:41:37.847Z,10.63
2023-01-30T21:44:07.536Z,13.00
2023-01-30T21:46:39.014Z,16.60
2023-01-30T21:49:07.401Z,14.37
2023-01-30T21:51:36.621Z,16.90
2023-01-30T21:54:05.110Z,12.73
2023-01-30T21:56:33.383Z,11.10
2023-01-30T21:59:03.028Z,13.97
2023-01-30T22:01:33.173Z,15.03
2023-01-30T22:04:01.339Z,11.83
2023-01-30T22:06:29.250Z,14.63
2023-01-30T22:08:58.209Z,13.73
2023-01-30T22:11:26.602Z,15.67
2023-01-30T22:13:54.912Z,14.83
2023-01-30T22:16:24.870Z,15.87
2023-01-30T22:18:55.311Z,12.67
2023-01-30T22:21:24.553Z,12.40
2023-01-30T22:23:54.002Z,11.60
2023-01-30T22:26:24.067Z,15.40
2023-01-30T22:28:54.473Z,13.77
2023-01-30T22:31:22.908Z,13.73
2023-01-30T22:33:54.093Z,14.37
2023-01-30T22:36:24.678Z,17.07
2023-01-30T22:38:52.613Z,13.60
2023-01-30T22:41:22.125Z,16.87
2023-01-30T22:43:55.255Z,16.77
2023-01-30T22:46:25.009Z,13.97
2023-01-30T22:48:54.731Z,12.53
2023-01-30T22:51:23.732Z,15.17
2023-01-30T22:53:53.107Z,18.47
2023-01-30T22:56:23.080Z,14.73
2023-01-30T22:58:51.091Z,14.30
2023-01-30T23:01:20.496Z,18.80
2023-01-30T23:03:49.685Z,15.13
2023-01-30T23:06:19.046Z,18.07
2023-01-30T23:08:48.685Z,18.57
2023-01-30T23:11:18.908Z,18.97
2023-01-30T23:13:48.619Z,17.50
2023-01-30T23:16:17.561Z,16.90
2023-01-30T23:18:56.696Z,15.87
2023-01-30T23:21:28.003Z,16.33
2023-01-30T23:23:57.717Z,14.33
2023-01-30T23:26:27.509Z,15.37
2023-01-30T23:28:55.233Z,17.17
2023-01-30T23:31:30.918Z,18.97
2023-01-30T23:34:00.773Z,17.63
2023-01-30T23:36:30.775Z,17.43
2023-01-30T23:38:59.817Z,13.40
2023-01-30T23:41:29.621Z,17.23
2023-01-30T23:43:58.253Z,20.40
2023-01-30T23:46:27.994Z,20.53
2023-01-30T23:48:57.130Z,18.77
2023-01-30T23:51:27.095Z,14.50
2023-01-30T23:53:56.688Z,17.73
2023-01-30T23:56:26.689Z,14.13
2023-01-30T23:58:54.535Z,20.63
